Time;durP1;ratioP1;P1;durP2;ratioP2;P2;SDS_P1;SDS_P2;PMS_P1;PMS_P2;Temp;Humidity;BMP_temperature;BMP_pressure;BME280_temperature;BME280_humidity;BME280_pressure;Samples;Min_cycle;Max_cycle;Signal;HPM_P1;HPM_P2
2021/01/29 00:06:34;;;;;;;45.60;14.73;;;;;;;-1.53;100.00;98518.05;10273949;85;21092;-84
2021/01/29 00:21:38;;;;;;;18.65;7.53;;;;;;;-1.31;100.00;98511.45;10270785;85;21216;-87
2021/01/29 00:36:42;;;;;;;12.88;5.35;;;;;;;-1.26;100.00;98499.11;10297703;85;21100;-85
2021/01/29 00:51:47;;;;;;;19.62;6.65;;;;;;;-1.09;100.00;98489.42;10303506;85;21174;-81
2021/01/29 01:06:51;;;;;;;20.50;7.22;;;;;;;-1.06;100.00;98487.92;10302599;85;21458;-82
2021/01/29 01:21:56;;;;;;;33.98;11.12;;;;;;;-1.14;100.00;98481.20;10585076;84;21149;-82
2021/01/29 01:37:00;;;;;;;22.20;9.10;;;;;;;-1.11;100.00;98468.11;10591597;84;21094;-81
2021/01/29 01:52:10;;;;;;;37.65;15.10;;;;;;;-1.02;100.00;98486.33;10632402;84;21067;-81
2021/01/29 02:07:26;;;;;;;10.68;4.72;;;;;;;-0.94;100.00;98488.35;10636869;84;21107;-82
2021/01/29 02:23:14;;;;;;;8.90;4.28;;;;;;;-0.82;100.00;98484.58;10291406;87;21035;-81
2021/01/29 02:38:47;;;;;;;6.67;3.10;;;;;;;-0.91;100.00;98481.72;10471827;85;21044;-81
2021/01/29 02:53:58;;;;;;;14.75;7.28;;;;;;;-0.92;100.00;98476.69;10460017;85;21039;-81
2021/01/29 03:09:09;;;;;;;8.10;3.52;;;;;;;-0.75;100.00;98470.33;10636534;84;21058;-84
2021/01/29 03:24:18;;;;;;;8.93;3.58;;;;;;;-0.81;100.00;98470.78;10639900;84;21075;-84
2021/01/29 03:39:27;;;;;;;7.37;3.12;;;;;;;-0.88;100.00;98478.11;10618198;84;21469;-84
2021/01/29 03:54:40;;;;;;;7.53;3.22;;;;;;;-0.78;100.00;98466.25;10611655;84;21071;-84
2021/01/29 04:09:51;;;;;;;5.05;2.33;;;;;;;-0.87;100.00;98465.12;10570999;84;21078;-87
2021/01/29 04:25:00;;;;;;;46.92;17.67;;;;;;;-0.54;100.00;98464.97;10542678;84;21067;-86
2021/01/29 04:40:14;;;;;;;9.13;4.28;;;;;;;-0.40;100.00;98467.02;10560286;84;21175;-84
2021/01/29 04:56:07;;;;;;;6.33;4.70;;;;;;;-0.38;100.00;98472.90;10538457;84;21464;-84
2021/01/29 05:11:46;;;;;;;12.40;5.90;;;;;;;-0.44;100.00;98481.06;10055836;87;21092;-85
2021/01/29 05:27:49;;;;;;;5.95;3.00;;;;;;;-0.37;100.00;98481.80;9653224;91;21220;-85
2021/01/29 05:43:11;;;;;;;42.75;18.30;;;;;;;-0.47;100.00;98480.81;9772778;89;21076;-83
2021/01/29 05:59:13;;;;;;;7.75;3.37;;;;;;;-0.44;100.00;98488.78;10145956;85;21117;-84
2021/01/29 06:15:18;;;;;;;6.00;2.80;;;;;;;-0.56;100.00;98495.63;10254269;85;21099;-85
2021/01/29 06:30:58;;;;;;;7.42;3.40;;;;;;;-0.61;100.00;98510.59;9974690;88;22042;-85
2021/01/29 06:46:45;;;;;;;11.70;5.22;;;;;;;-0.33;100.00;98510.77;9973827;88;21165;-83
2021/01/29 07:02:17;;;;;;;25.52;11.22;;;;;;;-0.44;100.00;98509.40;10295323;85;21102;-86
2021/01/29 07:18:01;;;;;;;31.77;11.45;;;;;;;-0.39;100.00;98508.61;10316829;85;21226;-87
2021/01/29 07:33:13;;;;;;;18.75;7.12;;;;;;;-0.38;100.00;98509.78;9838917;87;21178;-87
2021/01/29 07:48:56;;;;;;;46.18;22.32;;;;;;;-0.45;100.00;98502.59;9832176;90;21128;-83
2021/01/29 08:04:24;;;;;;;64.40;33.08;;;;;;;-0.51;100.00;98502.09;10183893;85;21586;-76
2021/01/29 08:19:33;;;;;;;20.17;9.28;;;;;;;-0.48;100.00;98505.40;10406718;85;21480;-76
2021/01/29 08:35:11;;;;;;;37.03;16.15;;;;;;;-0.48;100.00;98492.04;10337033;85;21535;-77
2021/01/29 08:50:31;;;;;;;24.65;10.70;;;;;;;-0.44;100.00;98501.19;10530756;84;21553;-81
2021/01/29 09:05:40;;;;;;;438.83;156.93;;;;;;;-0.44;100.00;98491.36;10555611;84;21112;-78
2021/01/29 09:20:49;;;;;;;50.23;26.93;;;;;;;-0.26;100.00;98473.77;10602468;84;21099;-81
2021/01/29 09:35:58;;;;;;;89.20;35.88;;;;;;;-0.01;100.00;98486.98;10528402;84;21076;-81
2021/01/29 09:51:10;;;;;;;56.10;25.05;;;;;;;0.08;100.00;98491.47;10522357;84;21041;-82
2021/01/29 10:06:20;;;;;;;47.60;20.85;;;;;;;0.14;100.00;98499.22;10480157;84;21123;-81
2021/01/29 10:21:36;;;;;;;26.33;11.80;;;;;;;0.36;100.00;98484.72;10552294;84;21121;-83
2021/01/29 10:36:42;;;;;;;333.53;120.63;;;;;;;0.61;100.00;98471.64;10474511;83;21556;-83
2021/01/29 10:51:57;;;;;;;91.33;42.47;;;;;;;0.99;100.00;98469.66;10479748;84;21065;-83
2021/01/29 11:07:06;;;;;;;27.35;12.28;;;;;;;0.88;100.00;98486.44;10493514;84;21064;-82
2021/01/29 11:22:26;;;;;;;35.45;17.98;;;;;;;0.66;100.00;98482.44;10461401;84;21057;-80
2021/01/29 11:37:37;;;;;;;25.48;12.65;;;;;;;0.98;100.00;98492.54;10351039;84;21044;-80
2021/01/29 11:52:45;;;;;;;29.48;14.07;;;;;;;0.83;100.00;98492.77;10331192;85;21082;-79
2021/01/29 12:08:01;;;;;;;79.42;27.32;;;;;;;0.69;100.00;98494.73;10336256;85;21238;-81
2021/01/29 12:23:13;;;;;;;57.05;23.02;;;;;;;0.84;100.00;98488.42;10308142;85;21095;-79
2021/01/29 12:38:27;;;;;;;32.55;14.73;;;;;;;0.64;100.00;98480.42;10515520;84;21129;-79
2021/01/29 12:53:46;;;;;;;39.65;15.70;;;;;;;0.65;100.00;98478.69;10529269;84;21019;-82
2021/01/29 13:09:31;;;;;;;40.85;18.62;;;;;;;0.57;100.00;98473.27;10538513;84;21500;-82
2021/01/29 13:24:36;;;;;;;28.90;14.07;;;;;;;0.44;100.00;98487.58;10497477;84;21071;-82
2021/01/29 13:39:44;;;;;;;24.85;11.48;;;;;;;0.64;100.00;98497.20;10522128;84;21067;-82
2021/01/29 13:54:49;;;;;;;36.00;15.50;;;;;;;0.59;100.00;98480.43;10472602;84;21518;-82
2021/01/29 14:09:53;;;;;;;59.23;23.83;;;;;;;0.56;100.00;98475.52;10467292;84;21039;-81
2021/01/29 14:25:12;;;;;;;86.72;35.85;;;;;;;0.60;100.00;98479.50;10457814;84;21151;-82
2021/01/29 14:41:12;;;;;;;31.93;16.73;;;;;;;0.62;100.00;98491.80;10558543;84;21082;-82
2021/01/29 14:56:26;;;;;;;86.67;37.28;;;;;;;0.49;100.00;98500.95;9740431;89;21585;-79
2021/01/29 15:11:39;;;;;;;86.43;33.30;;;;;;;0.49;100.00;98484.99;9447641;93;21096;-85
2021/01/29 15:26:54;;;;;;;91.45;35.03;;;;;;;0.48;100.00;98493.66;10182958;84;21054;-84
2021/01/29 15:42:04;;;;;;;230.70;77.27;;;;;;;0.48;100.00;98497.53;10445068;84;21064;-86
2021/01/29 15:57:40;;;;;;;115.88;43.73;;;;;;;0.41;100.00;98500.23;10089834;86;21019;-83
2021/01/29 16:12:50;;;;;;;116.33;39.40;;;;;;;0.39;100.00;98509.83;10489302;84;21045;-84
2021/01/29 16:27:55;;;;;;;138.75;50.20;;;;;;;0.48;100.00;98523.34;10499142;83;21076;-84
2021/01/29 16:43:11;;;;;;;93.58;34.80;;;;;;;0.43;100.00;98524.63;10058734;86;21560;-83
2021/01/29 16:58:22;;;;;;;135.82;52.58;;;;;;;0.47;100.00;98528.14;10010531;88;21067;-83
2021/01/29 17:13:27;;;;;;;79.60;39.27;;;;;;;0.56;100.00;98527.12;10261938;86;21099;-83
2021/01/29 17:28:36;;;;;;;70.57;27.77;;;;;;;0.48;100.00;98539.30;10238250;86;21178;-83
2021/01/29 17:43:44;;;;;;;121.55;44.98;;;;;;;0.40;100.00;98529.55;10234811;85;21504;-83
2021/01/29 17:58:48;;;;;;;94.85;36.93;;;;;;;0.44;100.00;98532.25;9805905;91;21074;-83
2021/01/29 18:13:58;;;;;;;69.97;30.85;;;;;;;0.36;100.00;98519.10;10282834;85;21101;-83
2021/01/29 18:29:05;;;;;;;86.10;30.08;;;;;;;0.41;100.00;98513.13;10443311;85;21129;-82
2021/01/29 18:44:14;;;;;;;322.52;120.37;;;;;;;0.43;100.00;98516.89;10460904;85;21129;-82
2021/01/29 18:59:18;;;;;;;157.95;59.25;;;;;;;0.50;100.00;98521.93;10251037;87;21161;-81
2021/01/29 19:14:23;;;;;;;124.53;44.13;;;;;;;0.33;100.00;98527.08;10468475;85;21465;-82
2021/01/29 19:29:29;;;;;;;63.53;27.07;;;;;;;0.30;100.00;98531.16;10289711;84;21134;-82
2021/01/29 19:44:33;;;;;;;100.70;31.90;;;;;;;0.26;100.00;98506.52;10482110;84;21555;-83
2021/01/29 19:59:41;;;;;;;110.55;31.70;;;;;;;-0.08;100.00;98486.62;10448528;84;21078;-82
2021/01/29 20:14:48;;;;;;;256.65;83.85;;;;;;;-0.33;100.00;98487.57;10524931;84;21501;-85
2021/01/29 20:29:53;;;;;;;166.90;57.98;;;;;;;-0.37;100.00;98501.58;10520593;84;21138;-86
2021/01/29 20:44:58;;;;;;;127.40;43.15;;;;;;;-1.23;100.00;98512.23;10598083;84;21228;-85
2021/01/29 21:00:05;;;;;;;84.07;32.45;;;;;;;-1.43;100.00;98534.16;10429391;84;21158;-83
2021/01/29 21:32:06;;;;;;;86.32;35.13;;;;;;;-0.64;100.00;98536.09;10223783;87;21075;-81
2021/01/29 21:48:28;;;;;;;76.55;33.10;;;;;;;-0.57;100.00;98539.91;9925511;89;21140;-81
2021/01/29 22:20:53;;;;;;;124.62;45.90;;;;;;;-0.69;100.00;98527.41;9916186;86;21085;-82
2021/01/29 22:36:47;;;;;;;170.47;57.67;;;;;;;-0.89;100.00;98534.39;10060977;87;21611;-82
